Time;durP1;ratioP1;P1;durP2;ratioP2;P2;SDS_P1;SDS_P2;PMS_P1;PMS_P2;Temp;Humidity;BMP_temperature;BMP_pressure;BME280_temperature;BME280_humidity;BME280_pressure;Samples;Min_cycle;Max_cycle;Signal;HPM_P1;HPM_P2
2022/12/03 00:00:13;;;;;;;17.90;11.68;;;5.60;99.90;;;;;;4993624;28;20377;-70
2022/12/03 00:02:39;;;;;;;16.73;11.32;;;5.60;99.90;;;;;;4994560;28;20038;-70
2022/12/03 00:05:05;;;;;;;21.33;12.95;;;5.60;99.90;;;;;;4992723;28;20131;-70
2022/12/03 00:07:31;;;;;;;16.95;11.85;;;5.60;99.90;;;;;;4996687;28;20093;-70
2022/12/03 00:09:56;;;;;;;19.55;12.15;;;5.30;99.90;;;;;;4984800;28;20031;-70
2022/12/03 00:12:22;;;;;;;20.67;12.77;;;5.30;99.90;;;;;;4987818;28;20130;-70
2022/12/03 00:14:47;;;;;;;20.08;12.57;;;5.40;99.90;;;;;;4994716;28;20105;-70
2022/12/03 00:17:13;;;;;;;18.95;11.88;;;5.50;99.90;;;;;;4989280;28;20109;-70
2022/12/03 00:19:39;;;;;;;18.13;10.77;;;5.50;99.90;;;;;;4993145;28;20038;-70
2022/12/03 00:22:04;;;;;;;17.83;11.52;;;5.60;99.90;;;;;;5001526;28;20046;-70
2022/12/03 00:24:30;;;;;;;18.95;11.38;;;5.50;99.90;;;;;;4994887;28;20042;-70
2022/12/03 00:26:56;;;;;;;20.38;11.75;;;5.30;99.90;;;;;;4996032;28;20072;-70
2022/12/03 00:29:21;;;;;;;17.20;9.93;;;5.30;99.90;;;;;;4988395;28;20029;-70
2022/12/03 00:31:47;;;;;;;19.42;10.82;;;5.30;99.90;;;;;;4983357;28;20026;-70
2022/12/03 00:34:12;;;;;;;17.35;11.00;;;5.40;99.90;;;;;;4992273;28;20041;-70
2022/12/03 00:36:38;;;;;;;17.00;10.48;;;5.40;99.90;;;;;;4984394;28;20493;-70
2022/12/03 00:39:04;;;;;;;17.45;10.35;;;5.40;99.90;;;;;;4994963;28;20466;-70
2022/12/03 00:41:30;;;;;;;15.70;10.68;;;5.40;99.90;;;;;;5001662;28;20044;-70
2022/12/03 00:43:56;;;;;;;18.27;11.13;;;5.40;99.90;;;;;;4992186;28;20409;-70
2022/12/03 00:46:25;;;;;;;18.23;11.13;;;5.40;99.90;;;;;;4991382;28;20042;-70
2022/12/03 00:48:51;;;;;;;17.52;12.10;;;5.50;99.90;;;;;;4998840;28;20056;-69
2022/12/03 00:51:17;;;;;;;20.92;13.18;;;5.50;99.90;;;;;;4987981;28;20030;-70
2022/12/03 00:53:42;;;;;;;19.83;11.82;;;5.60;99.90;;;;;;4988699;28;20088;-70
2022/12/03 00:56:08;;;;;;;17.08;10.77;;;5.70;99.90;;;;;;4993579;28;20026;-70
2022/12/03 00:58:33;;;;;;;18.10;11.82;;;5.70;99.90;;;;;;4992549;28;20397;-70
2022/12/03 01:00:59;;;;;;;20.52;12.00;;;5.70;99.90;;;;;;4999065;28;20067;-70
2022/12/03 01:03:25;;;;;;;19.05;12.27;;;5.60;99.90;;;;;;4995758;28;20041;-70
2022/12/03 01:05:50;;;;;;;18.80;12.45;;;5.60;99.90;;;;;;4989141;28;20026;-70
2022/12/03 01:08:16;;;;;;;18.60;11.90;;;5.50;99.90;;;;;;5005519;28;20527;-70
2022/12/03 01:10:42;;;;;;;20.15;12.25;;;5.50;99.90;;;;;;5002172;28;20072;-70
2022/12/03 01:13:07;;;;;;;19.42;11.32;;;5.40;99.90;;;;;;5007689;28;20065;-70
2022/12/03 01:15:33;;;;;;;22.52;12.07;;;5.40;99.90;;;;;;5000600;28;20037;-70
2022/12/03 01:17:59;;;;;;;17.98;11.68;;;5.40;99.90;;;;;;4997142;28;20032;-70
2022/12/03 01:20:24;;;;;;;17.00;11.10;;;5.50;99.90;;;;;;5002989;28;20033;-70
2022/12/03 01:22:50;;;;;;;22.27;12.20;;;5.40;99.90;;;;;;4996558;28;20627;-70
2022/12/03 01:25:16;;;;;;;17.33;10.75;;;5.40;99.90;;;;;;5003416;28;20033;-70
2022/12/03 01:27:41;;;;;;;19.05;11.75;;;5.50;99.90;;;;;;4991066;28;20051;-70
2022/12/03 01:30:08;;;;;;;18.73;12.43;;;5.50;99.90;;;;;;5004259;28;20057;-70
2022/12/03 01:32:33;;;;;;;18.08;12.20;;;5.60;99.90;;;;;;5005806;28;20038;-70
2022/12/03 01:34:59;;;;;;;20.15;11.23;;;5.50;99.90;;;;;;4988840;28;20030;-70
2022/12/03 01:37:26;;;;;;;17.17;10.63;;;5.40;99.90;;;;;;4996658;28;20420;-70
2022/12/03 01:39:51;;;;;;;18.08;11.00;;;5.40;99.90;;;;;;4996354;28;20125;-70
2022/12/03 01:42:21;;;;;;;17.23;11.05;;;5.50;99.90;;;;;;4989992;28;20091;-70
2022/12/03 01:44:47;;;;;;;17.85;11.63;;;5.50;99.90;;;;;;4988887;28;20513;-70
2022/12/03 01:47:16;;;;;;;18.10;10.73;;;5.50;99.90;;;;;;4996124;28;21137;-70
2022/12/03 01:49:48;;;;;;;19.45;12.52;;;5.40;99.90;;;;;;4996908;28;20037;-70
2022/12/03 01:52:20;;;;;;;19.73;12.55;;;5.40;99.90;;;;;;4995871;28;20109;-70
2022/12/03 01:54:52;;;;;;;18.92;12.02;;;5.40;99.90;;;;;;4996261;28;20118;-70
2022/12/03 01:57:17;;;;;;;21.60;12.07;;;5.40;99.90;;;;;;5000285;28;20065;-70
2022/12/03 01:59:43;;;;;;;17.67;11.88;;;5.50;99.90;;;;;;4990594;28;20515;-69
2022/12/03 02:02:23;;;;;;;16.88;11.48;;;5.60;99.90;;;;;;4997758;28;20033;-70
2022/12/03 02:04:49;;;;;;;17.98;11.73;;;5.60;99.90;;;;;;4990428;28;20030;-70
2022/12/03 02:07:25;;;;;;;15.63;10.00;;;5.60;99.90;;;;;;4990792;28;20097;-70
2022/12/03 02:09:51;;;;;;;14.63;9.13;;;5.60;99.90;;;;;;4990949;28;20040;-70
2022/12/03 02:12:22;;;;;;;15.82;9.32;;;5.50;99.90;;;;;;5002784;28;20037;-69
2022/12/03 02:14:48;;;;;;;12.93;8.48;;;5.40;99.90;;;;;;5007242;28;20187;-70
2022/12/03 02:17:15;;;;;;;13.77;9.25;;;5.30;99.90;;;;;;4999082;28;20416;-70
2022/12/03 02:19:40;;;;;;;15.15;8.90;;;5.30;99.90;;;;;;4998628;28;20021;-70
2022/12/03 02:22:43;;;;;;;14.90;9.13;;;5.30;99.90;;;;;;4995294;28;20149;-70
2022/12/03 02:25:19;;;;;;;15.73;9.82;;;5.30;99.90;;;;;;4996743;28;20038;-70
2022/12/03 02:27:46;;;;;;;15.15;9.80;;;5.30;99.90;;;;;;4992774;28;20045;-70
2022/12/03 02:30:17;;;;;;;14.68;8.35;;;5.40;99.90;;;;;;4998079;28;20038;-70
2022/12/03 02:32:43;;;;;;;19.15;11.10;;;5.30;99.90;;;;;;5001762;28;20034;-70
2022/12/03 02:35:23;;;;;;;19.55;10.30;;;5.20;99.90;;;;;;4995252;28;20182;-70
2022/12/03 02:37:53;;;;;;;16.35;9.68;;;5.20;99.90;;;;;;4998469;28;20042;-70
2022/12/03 02:40:22;;;;;;;16.73;10.23;;;5.10;99.90;;;;;;4998384;28;20156;-70
2022/12/03 02:42:50;;;;;;;16.75;10.73;;;5.10;99.90;;;;;;5002277;28;20088;-70
2022/12/03 02:45:29;;;;;;;15.65;10.18;;;5.20;99.90;;;;;;4997320;28;20033;-70
2022/12/03 02:48:23;;;;;;;17.45;10.50;;;5.20;99.90;;;;;;4997847;28;20084;-70
2022/12/03 02:50:52;;;;;;;17.20;11.55;;;5.30;99.90;;;;;;4995579;28;20049;-70
2022/12/03 02:53:25;;;;;;;21.35;10.90;;;5.30;99.90;;;;;;4996777;28;20435;-70
2022/12/03 02:55:51;;;;;;;18.23;9.75;;;5.20;99.90;;;;;;4994369;28;20085;-70
2022/12/03 02:58:17;;;;;;;20.08;11.48;;;5.20;99.90;;;;;;5006881;28;20532;-70
2022/12/03 03:00:44;;;;;;;15.40;10.20;;;5.20;99.90;;;;;;5001033;28;20037;-70
2022/12/03 03:03:11;;;;;;;16.13;10.65;;;5.20;99.90;;;;;;4993790;28;20030;-70
2022/12/03 03:05:38;;;;;;;17.75;10.73;;;5.30;99.90;;;;;;5003943;28;20045;-70
2022/12/03 03:08:06;;;;;;;14.48;9.63;;;5.40;99.90;;;;;;4996527;28;20037;-70
2022/12/03 03:10:33;;;;;;;16.27;10.13;;;5.50;99.90;;;;;;5003103;28;20032;-70
2022/12/03 03:13:02;;;;;;;15.13;10.13;;;5.50;99.90;;;;;;5002008;28;20030;-70
2022/12/03 03:15:28;;;;;;;18.88;10.90;;;5.50;99.90;;;;;;5008667;28;20037;-70
2022/12/03 03:17:54;;;;;;;17.30;10.68;;;5.70;99.90;;;;;;5007589;28;20030;-70
2022/12/03 03:20:20;;;;;;;16.85;8.80;;;5.70;99.90;;;;;;5003896;28;20037;-70
2022/12/03 03:22:46;;;;;;;15.98;10.48;;;5.60;99.90;;;;;;4993170;28;20054;-70
2022/12/03 03:25:15;;;;;;;16.15;10.27;;;5.50;99.90;;;;;;4997505;28;20029;-70
2022/12/03 03:27:41;;;;;;;17.48;10.40;;;5.40;99.90;;;;;;5007668;28;20403;-70
2022/12/03 03:30:08;;;;;;;17.13;10.55;;;5.30;99.90;;;;;;5001803;28;20033;-70
2022/12/03 03:32:34;;;;;;;17.27;10.57;;;5.30;99.90;;;;;;4997346;28;20393;-70
2022/12/03 03:35:01;;;;;;;14.60;9.98;;;5.30;99.90;;;;;;5005612;28;20113;-70
2022/12/03 03:37:27;;;;;;;16.65;10.50;;;5.30;99.90;;;;;;5003878;28;20579;-70
2022/12/03 03:39:54;;;;;;;18.38;10.68;;;5.40;99.90;;;;;;5003978;28;20044;-70
2022/12/03 03:42:19;;;;;;;15.32;8.82;;;5.40;99.90;;;;;;5005774;28;20040;-70
2022/12/03 03:44:46;;;;;;;18.95;10.85;;;5.40;99.90;;;;;;4998368;28;20030;-70
2022/12/03 03:47:12;;;;;;;16.80;11.15;;;5.50;99.90;;;;;;5007002;28;20396;-70
2022/12/03 03:49:39;;;;;;;15.85;9.50;;;5.40;99.90;;;;;;5000626;28;20038;-70
2022/12/03 03:52:05;;;;;;;17.83;9.57;;;5.50;99.90;;;;;;5001428;28;20178;-70
2022/12/03 03:54:31;;;;;;;13.75;9.02;;;5.50;99.90;;;;;;5004377;28;20473;-70
2022/12/03 03:56:57;;;;;;;14.77;9.77;;;5.40;99.90;;;;;;5004159;28;20033;-70
2022/12/03 03:59:23;;;;;;;14.65;9.73;;;5.40;99.90;;;;;;5005047;28;20113;-69
2022/12/03 04:01:48;;;;;;;15.48;10.00;;;5.40;99.90;;;;;;5003518;28;20022;-68
2022/12/03 04:04:18;;;;;;;15.27;10.20;;;5.40;99.90;;;;;;4998648;28;20029;-68
2022/12/03 04:06:44;;;;;;;15.52;9.40;;;5.40;99.90;;;;;;5000191;28;20049;-69
2022/12/03 04:09:10;;;;;;;14.98;9.93;;;5.40;99.90;;;;;;4998711;28;20046;-68
2022/12/03 04:14:20;;;;;;;15.70;10.00;;;5.40;99.90;;;;;;5002474;28;20168;-68
2022/12/03 04:16:45;;;;;;;15.52;9.18;;;5.40;99.90;;;;;;4995791;28;20627;-68
2022/12/03 04:19:11;;;;;;;13.80;8.32;;;5.30;99.90;;;;;;4997566;28;20033;-68
2022/12/03 04:24:20;;;;;;;15.15;9.38;;;5.40;99.90;;;;;;5002093;28;20092;-68
2022/12/03 04:29:30;;;;;;;14.77;9.30;;;5.30;99.90;;;;;;4992884;28;20578;-68
2022/12/03 04:37:24;;;;;;;19.50;9.70;;;5.30;99.90;;;;;;4993583;28;20088;-68
2022/12/03 04:39:50;;;;;;;15.82;9.95;;;5.40;99.90;;;;;;4998263;28;20037;-68
2022/12/03 04:42:15;;;;;;;17.80;10.10;;;5.40;99.90;;;;;;4995459;28;20029;-68
2022/12/03 04:44:41;;;;;;;16.52;10.55;;;5.40;99.90;;;;;;4996124;28;20235;-68
2022/12/03 04:47:13;;;;;;;15.63;9.73;;;5.40;99.90;;;;;;4991480;28;20038;-68
2022/12/03 04:49:42;;;;;;;16.58;9.73;;;5.30;99.90;;;;;;4987808;28;20093;-68
2022/12/03 04:52:09;;;;;;;14.50;9.10;;;5.30;99.90;;;;;;4991097;28;20029;-68
2022/12/03 04:54:35;;;;;;;17.15;9.48;;;5.20;99.90;;;;;;4989139;28;20042;-68
2022/12/03 04:57:01;;;;;;;16.73;10.13;;;5.20;99.90;;;;;;4997609;28;20030;-68
2022/12/03 04:59:27;;;;;;;16.35;9.85;;;5.20;99.90;;;;;;4993156;28;20036;-68
2022/12/03 05:01:53;;;;;;;16.30;9.40;;;5.20;99.90;;;;;;4984230;28;20120;-68
2022/12/03 05:04:18;;;;;;;15.82;8.93;;;5.30;99.90;;;;;;4995059;28;20115;-68
2022/12/03 05:06:44;;;;;;;13.48;8.32;;;5.40;99.90;;;;;;4991132;28;20066;-68
2022/12/03 05:09:11;;;;;;;15.23;9.45;;;5.40;99.90;;;;;;4982902;28;20529;-68
2022/12/03 05:11:37;;;;;;;14.45;9.57;;;5.40;99.90;;;;;;4983208;28;20038;-68
2022/12/03 05:14:02;;;;;;;15.43;9.80;;;5.40;99.90;;;;;;4996941;28;20157;-68
2022/12/03 05:16:28;;;;;;;15.02;8.73;;;5.30;99.90;;;;;;4987990;28;20119;-68
2022/12/03 05:18:54;;;;;;;15.75;9.45;;;5.30;99.90;;;;;;4987384;28;20714;-68
2022/12/03 05:21:19;;;;;;;14.60;8.32;;;5.30;99.90;;;;;;4992330;28;20069;-68
2022/12/03 05:23:45;;;;;;;12.50;8.27;;;5.20;99.90;;;;;;4991628;28;20037;-68
2022/12/03 05:26:11;;;;;;;14.57;9.40;;;5.20;99.90;;;;;;4998246;28;20049;-68
2022/12/03 05:28:36;;;;;;;15.15;8.65;;;5.10;99.90;;;;;;4994449;28;20033;-68
2022/12/03 05:31:03;;;;;;;13.90;8.35;;;5.10;99.90;;;;;;4988595;28;20033;-68
2022/12/03 05:33:29;;;;;;;17.58;9.40;;;5.00;99.90;;;;;;4981368;28;20041;-68
2022/12/03 05:35:55;;;;;;;16.08;9.82;;;5.00;99.90;;;;;;4986974;28;20023;-68
2022/12/03 05:38:21;;;;;;;18.83;10.10;;;5.00;99.90;;;;;;4989162;28;20033;-68
2022/12/03 05:40:46;;;;;;;15.32;9.25;;;5.00;99.90;;;;;;4989590;28;20085;-68
2022/12/03 05:43:12;;;;;;;14.07;9.35;;;5.10;99.90;;;;;;4989333;28;20359;-68
2022/12/03 05:45:40;;;;;;;17.70;10.77;;;5.10;99.90;;;;;;4996170;28;20037;-68
2022/12/03 05:48:08;;;;;;;14.85;9.23;;;5.20;99.90;;;;;;4985571;28;20023;-68
2022/12/03 05:50:35;;;;;;;13.35;7.45;;;5.20;99.90;;;;;;4993361;28;20037;-68
2022/12/03 05:53:01;;;;;;;12.25;7.40;;;5.30;99.90;;;;;;4991617;28;20516;-68
2022/12/03 05:55:27;;;;;;;14.65;8.38;;;5.40;99.90;;;;;;4991705;28;20066;-68
2022/12/03 05:57:53;;;;;;;13.77;8.13;;;5.40;99.90;;;;;;4998242;28;20068;-68
2022/12/03 06:00:27;;;;;;;11.85;7.53;;;5.30;99.90;;;;;;4989693;28;20542;-68
2022/12/03 06:02:54;;;;;;;13.75;7.57;;;5.30;99.90;;;;;;4992795;28;20041;-68
2022/12/03 06:05:20;;;;;;;13.13;7.97;;;5.40;99.90;;;;;;4990973;28;20026;-68
2022/12/03 06:07:47;;;;;;;12.70;7.85;;;5.40;99.90;;;;;;4991968;28;20612;-67
2022/12/03 06:10:15;;;;;;;14.02;8.18;;;5.40;99.90;;;;;;4990151;28;20034;-68
2022/12/03 06:12:41;;;;;;;11.23;6.82;;;5.30;99.90;;;;;;4991252;28;20117;-68
2022/12/03 06:15:07;;;;;;;10.82;7.22;;;5.40;99.90;;;;;;4987537;28;20029;-67
2022/12/03 06:17:33;;;;;;;12.32;6.05;;;5.40;99.90;;;;;;4999476;28;20029;-67
2022/12/03 06:19:59;;;;;;;11.30;7.88;;;5.40;99.90;;;;;;4994337;28;20061;-67
2022/12/03 06:22:25;;;;;;;15.60;7.90;;;5.40;99.90;;;;;;4994234;28;20058;-67
2022/12/03 06:24:51;;;;;;;14.18;7.70;;;5.40;99.90;;;;;;4996563;28;20401;-68
2022/12/03 06:27:17;;;;;;;11.20;7.45;;;5.40;99.90;;;;;;5002172;28;20038;-67
2022/12/03 06:29:43;;;;;;;15.70;8.30;;;5.40;99.90;;;;;;4998105;28;20038;-67
2022/12/03 06:32:09;;;;;;;13.00;7.40;;;5.40;99.90;;;;;;4998613;28;20026;-68
2022/12/03 06:34:35;;;;;;;10.27;6.70;;;5.30;99.90;;;;;;4995630;28;20045;-68
2022/12/03 06:37:00;;;;;;;12.95;7.68;;;5.30;99.90;;;;;;5001542;28;20488;-67
2022/12/03 06:39:26;;;;;;;12.38;7.05;;;5.30;99.90;;;;;;4994862;28;20038;-68
2022/12/03 06:41:52;;;;;;;13.32;8.85;;;5.20;99.90;;;;;;4997370;28;20649;-68
2022/12/03 06:44:17;;;;;;;11.95;6.55;;;5.20;99.90;;;;;;4998033;28;20022;-68
2022/12/03 06:46:43;;;;;;;11.93;7.00;;;5.20;99.90;;;;;;4990204;28;20492;-67
2022/12/03 06:49:09;;;;;;;12.23;6.90;;;5.20;99.90;;;;;;4996845;28;20157;-68
2022/12/03 06:51:35;;;;;;;11.60;7.15;;;5.20;99.90;;;;;;5001667;28;20076;-67
2022/12/03 06:54:02;;;;;;;11.35;7.13;;;5.10;99.90;;;;;;4998495;28;20109;-68
2022/12/03 06:56:28;;;;;;;10.00;6.20;;;5.10;99.90;;;;;;4992377;28;20026;-67
2022/12/03 06:58:53;;;;;;;14.73;8.13;;;5.10;99.90;;;;;;4991976;28;20034;-67
2022/12/03 07:01:19;;;;;;;15.20;9.75;;;5.10;99.90;;;;;;4989756;28;20881;-68
2022/12/03 07:03:45;;;;;;;13.32;8.07;;;5.10;99.90;;;;;;4987078;28;20078;-67
2022/12/03 07:06:11;;;;;;;10.93;6.90;;;5.10;99.90;;;;;;4989919;28;20041;-67
2022/12/03 07:08:37;;;;;;;12.52;6.97;;;5.20;99.90;;;;;;4989760;28;20418;-67
2022/12/03 07:11:03;;;;;;;12.65;7.10;;;5.10;99.90;;;;;;4988647;28;20121;-67
2022/12/03 07:13:28;;;;;;;13.15;8.35;;;5.10;99.90;;;;;;4990954;28;20500;-69
2022/12/03 07:15:54;;;;;;;11.05;7.20;;;5.30;99.90;;;;;;4992514;28;20038;-67
2022/12/03 07:18:20;;;;;;;12.82;7.68;;;5.20;99.90;;;;;;4986630;28;20113;-69
2022/12/03 07:20:45;;;;;;;12.68;8.43;;;5.20;99.90;;;;;;4987062;28;20465;-69
2022/12/03 07:23:11;;;;;;;9.85;6.25;;;5.10;99.90;;;;;;4986477;28;20058;-69
2022/12/03 07:25:36;;;;;;;10.15;6.18;;;5.10;99.90;;;;;;4994537;28;20022;-69
2022/12/03 07:28:02;;;;;;;11.82;6.40;;;5.10;99.90;;;;;;4991511;28;20045;-69
2022/12/03 07:30:28;;;;;;;10.10;6.25;;;5.10;99.90;;;;;;4988628;28;20121;-69
2022/12/03 07:32:54;;;;;;;11.68;6.78;;;5.10;99.90;;;;;;4992265;28;20038;-69
2022/12/03 07:35:20;;;;;;;11.38;6.80;;;5.20;99.90;;;;;;4995665;28;20084;-69
2022/12/03 07:37:46;;;;;;;12.63;8.02;;;5.20;99.90;;;;;;4993840;28;20120;-69
2022/12/03 07:40:12;;;;;;;12.05;7.40;;;5.20;99.90;;;;;;4993596;28;20469;-69
2022/12/03 07:42:38;;;;;;;11.35;7.20;;;5.20;99.90;;;;;;4997814;28;20882;-69
2022/12/03 07:45:04;;;;;;;11.07;7.20;;;5.30;99.90;;;;;;4992382;28;20057;-69
2022/12/03 07:47:30;;;;;;;11.35;7.35;;;5.60;99.90;;;;;;4992729;28;20077;-69
2022/12/03 07:49:56;;;;;;;11.05;7.40;;;5.50;99.90;;;;;;4994942;28;20117;-68
2022/12/03 07:52:22;;;;;;;13.13;7.68;;;5.50;99.90;;;;;;4993377;28;20132;-69
2022/12/03 07:54:47;;;;;;;12.65;7.32;;;5.60;99.90;;;;;;4993064;28;20034;-68
2022/12/03 07:57:13;;;;;;;12.07;7.32;;;5.60;99.90;;;;;;4995875;28;20792;-66
2022/12/03 07:59:38;;;;;;;12.07;6.63;;;5.60;99.90;;;;;;5001590;28;20087;-68
2022/12/03 08:02:05;;;;;;;13.45;7.25;;;5.70;99.90;;;;;;4995855;28;20532;-67
2022/12/03 08:04:30;;;;;;;12.88;7.70;;;5.60;99.90;;;;;;4997646;28;20048;-68
2022/12/03 08:06:56;;;;;;;10.13;6.30;;;5.60;99.90;;;;;;4992611;28;20046;-68
2022/12/03 08:09:22;;;;;;;13.05;7.68;;;5.60;99.90;;;;;;5009889;28;20044;-69
2022/12/03 08:11:48;;;;;;;11.43;6.88;;;5.60;99.90;;;;;;4991139;28;20031;-69
2022/12/03 08:14:18;;;;;;;12.70;7.88;;;5.60;99.90;;;;;;4991548;28;20117;-69
2022/12/03 08:16:46;;;;;;;10.38;7.03;;;5.60;99.90;;;;;;4992398;28;20030;-69
2022/12/03 08:19:14;;;;;;;12.50;8.20;;;5.70;99.90;;;;;;4987490;28;20121;-69
2022/12/03 08:21:41;;;;;;;12.02;7.57;;;5.70;99.90;;;;;;4990044;28;20452;-69
2022/12/03 08:24:19;;;;;;;11.80;7.63;;;5.70;99.90;;;;;;4991430;28;20436;-69
2022/12/03 08:26:46;;;;;;;13.00;7.22;;;5.70;99.90;;;;;;4995987;28;20037;-69
2022/12/03 08:29:19;;;;;;;14.18;7.85;;;5.70;99.90;;;;;;4989439;28;20045;-69
2022/12/03 08:31:50;;;;;;;12.15;7.68;;;5.70;99.90;;;;;;4990218;28;20113;-69
2022/12/03 08:34:25;;;;;;;11.73;7.18;;;5.70;99.90;;;;;;4994387;28;20045;-69
2022/12/03 08:36:54;;;;;;;;;;;5.60;99.90;;;;;;4992677;28;20065;-69
2022/12/03 08:39:32;;;;;;;10.40;6.38;;;5.70;99.90;;;;;;4989966;28;19921;-69
2022/12/03 08:44:46;;;;;;;12.73;7.25;;;5.80;99.90;;;;;;4994038;28;20173;-68
2022/12/03 08:47:23;;;;;;;10.98;7.18;;;5.90;99.90;;;;;;4988492;28;20049;-69
2022/12/03 08:49:56;;;;;;;11.40;6.70;;;6.00;99.90;;;;;;4991708;28;20083;-69
2022/12/03 08:52:29;;;;;;;10.05;6.18;;;6.00;99.90;;;;;;4986373;28;20061;-69
2022/12/03 08:54:55;;;;;;;11.60;7.53;;;5.90;99.90;;;;;;4987514;28;20030;-69
2022/12/03 08:57:24;;;;;;;14.38;7.78;;;5.90;99.90;;;;;;4982635;28;20876;-69
2022/12/03 08:59:56;;;;;;;14.23;7.85;;;5.80;99.90;;;;;;4986749;28;20030;-69
2022/12/03 09:02:31;;;;;;;13.52;7.72;;;5.80;99.90;;;;;;4992735;28;20093;-69
2022/12/03 09:04:57;;;;;;;11.00;7.13;;;5.90;99.90;;;;;;4989389;28;20105;-70
2022/12/03 09:07:22;;;;;;;13.23;7.70;;;5.90;99.90;;;;;;4988630;28;20120;-69
2022/12/03 09:09:48;;;;;;;11.82;7.55;;;5.90;99.90;;;;;;4985876;28;20448;-68
2022/12/03 09:12:14;;;;;;;10.35;6.97;;;5.90;99.90;;;;;;4992648;28;20037;-68
2022/12/03 09:14:39;;;;;;;13.23;7.32;;;6.00;99.90;;;;;;4990163;28;20034;-68
2022/12/03 09:17:05;;;;;;;14.65;7.68;;;6.10;99.90;;;;;;4984417;28;20031;-68
2022/12/03 09:19:30;;;;;;;12.27;8.20;;;6.10;99.90;;;;;;4993827;28;20080;-67
2022/12/03 09:21:56;;;;;;;12.88;7.80;;;6.10;99.90;;;;;;4991927;28;20421;-68
2022/12/03 09:24:22;;;;;;;11.50;7.47;;;6.10;99.90;;;;;;4990185;28;20666;-67
2022/12/03 09:26:48;;;;;;;12.10;7.22;;;6.00;99.90;;;;;;4993385;28;20034;-67
2022/12/03 09:29:14;;;;;;;11.68;7.70;;;6.00;99.90;;;;;;4999936;28;20022;-68
2022/12/03 09:31:40;;;;;;;12.50;8.02;;;6.00;99.90;;;;;;4998021;28;20073;-67
2022/12/03 09:34:06;;;;;;;13.30;7.55;;;6.00;99.90;;;;;;4994728;28;20080;-68
2022/12/03 09:36:32;;;;;;;11.77;7.10;;;6.10;99.90;;;;;;4990190;28;20026;-67
2022/12/03 09:38:58;;;;;;;11.80;7.53;;;6.20;99.90;;;;;;4999763;28;20068;-68
2022/12/03 09:41:25;;;;;;;14.52;8.27;;;6.10;99.90;;;;;;4993281;28;20053;-68
2022/12/03 09:43:52;;;;;;;11.85;7.65;;;6.10;99.90;;;;;;4991546;28;20060;-68
2022/12/03 09:46:19;;;;;;;13.13;8.63;;;6.20;99.90;;;;;;4987963;28;20057;-67
2022/12/03 09:48:45;;;;;;;15.63;9.55;;;6.30;99.90;;;;;;4989998;28;20033;-67
2022/12/03 09:51:11;;;;;;;20.55;12.35;;;6.30;99.90;;;;;;4982730;28;20354;-68
2022/12/03 09:53:38;;;;;;;14.20;9.18;;;6.30;99.90;;;;;;4987729;28;20030;-68
2022/12/03 09:56:04;;;;;;;13.82;9.13;;;6.40;99.90;;;;;;4990749;28;20038;-68
2022/12/03 09:58:30;;;;;;;12.90;7.68;;;6.40;99.90;;;;;;5003114;28;20033;-68
2022/12/03 10:00:56;;;;;;;13.50;8.65;;;6.40;99.90;;;;;;5004167;28;20030;-68
2022/12/03 10:03:27;;;;;;;13.43;8.50;;;6.40;99.90;;;;;;5007437;28;20030;-68
2022/12/03 10:05:53;;;;;;;12.43;8.60;;;6.30;99.90;;;;;;5005943;28;20037;-68
2022/12/03 10:08:21;;;;;;;14.48;8.63;;;6.30;99.90;;;;;;5007255;28;20495;-68
2022/12/03 10:10:50;;;;;;;16.10;8.68;;;6.30;99.90;;;;;;5005955;28;20133;-68
2022/12/03 10:13:24;;;;;;;16.02;10.13;;;6.30;99.90;;;;;;4995819;28;20109;-68
2022/12/03 10:15:52;;;;;;;15.10;9.07;;;6.20;99.90;;;;;;5032988;28;20372;-68
2022/12/03 10:18:22;;;;;;;14.65;9.65;;;6.20;99.90;;;;;;5006405;28;20028;-68
2022/12/03 10:20:49;;;;;;;16.42;9.73;;;6.20;99.90;;;;;;5005854;28;20457;-68
2022/12/03 10:23:26;;;;;;;15.40;9.98;;;6.30;99.90;;;;;;5006362;28;20527;-68
2022/12/03 10:25:55;;;;;;;15.77;10.35;;;6.30;99.90;;;;;;5005602;28;20040;-68
2022/12/03 10:28:47;;;;;;;17.85;10.60;;;6.30;99.90;;;;;;5006461;28;20030;-68
2022/12/03 10:31:13;;;;;;;15.75;10.20;;;6.30;99.90;;;;;;5005116;28;20527;-68
2022/12/03 10:33:46;;;;;;;19.92;11.15;;;6.30;99.90;;;;;;5001264;28;20743;-69
2022/12/03 10:36:14;;;;;;;15.20;10.27;;;6.40;99.90;;;;;;5007702;28;20508;-68
2022/12/03 10:38:40;;;;;;;16.65;10.88;;;6.40;99.90;;;;;;5006067;28;20048;-68
2022/12/03 10:41:26;;;;;;;18.33;11.20;;;6.50;99.90;;;;;;5006420;28;20026;-68
2022/12/03 10:43:52;;;;;;;19.90;11.60;;;6.50;99.90;;;;;;5006420;28;20026;-68
2022/12/03 10:46:20;;;;;;;17.02;10.88;;;6.50;99.90;;;;;;5006342;28;20034;-68
2022/12/03 10:49:23;;;;;;;15.98;10.38;;;6.50;99.90;;;;;;5003766;28;20029;-68
2022/12/03 10:51:49;;;;;;;15.60;9.68;;;6.40;99.90;;;;;;5003319;28;20041;-68
2022/12/03 10:54:21;;;;;;;15.38;8.80;;;6.50;99.90;;;;;;5002639;28;20026;-68
2022/12/03 10:56:48;;;;;;;17.92;10.32;;;6.40;99.90;;;;;;4993358;28;20038;-68
2022/12/03 10:59:30;;;;;;;16.92;9.27;;;6.30;99.90;;;;;;4995858;28;20457;-68
2022/12/03 11:01:56;;;;;;;14.13;9.50;;;6.50;99.90;;;;;;4989262;28;20415;-68
2022/12/03 11:04:25;;;;;;;18.38;8.63;;;6.60;99.90;;;;;;4998290;28;20026;-68
2022/12/03 11:06:51;;;;;;;18.67;10.27;;;6.90;99.90;;;;;;4996235;28;20057;-67
2022/12/03 11:09:27;;;;;;;19.42;10.88;;;7.00;99.90;;;;;;4990712;28;20378;-68
2022/12/03 11:11:53;;;;;;;13.82;8.68;;;6.90;99.90;;;;;;4983870;28;20035;-67
2022/12/03 11:14:50;;;;;;;17.42;10.55;;;6.90;99.90;;;;;;4990568;28;20099;-68
2022/12/03 11:17:44;;;;;;;15.25;8.48;;;7.00;99.90;;;;;;4988481;28;20089;-68
2022/12/03 11:20:18;;;;;;;14.68;9.30;;;7.10;99.90;;;;;;4993990;28;20092;-68
2022/12/03 11:22:47;;;;;;;13.90;9.55;;;7.10;99.90;;;;;;5001849;28;20598;-68
2022/12/03 11:25:27;;;;;;;14.35;8.93;;;7.20;99.90;;;;;;4988321;28;20030;-68
2022/12/03 11:28:14;;;;;;;12.77;8.45;;;7.10;99.90;;;;;;5002442;28;20068;-68
2022/12/03 11:30:52;;;;;;;13.95;8.90;;;7.00;99.90;;;;;;4999673;28;20046;-69
2022/12/03 11:33:31;;;;;;;14.63;9.45;;;7.00;99.90;;;;;;4992527;28;20026;-68
2022/12/03 11:36:03;;;;;;;15.43;8.32;;;7.00;99.90;;;;;;4996486;28;20044;-68
2022/12/03 11:38:40;;;;;;;12.82;8.25;;;6.90;99.90;;;;;;5004478;28;20116;-68
2022/12/03 11:41:19;;;;;;;14.20;8.88;;;6.90;99.90;;;;;;4997773;28;20107;-68
2022/12/03 11:43:51;;;;;;;14.50;9.25;;;7.00;99.90;;;;;;5003713;28;20044;-69
2022/12/03 11:46:41;;;;;;;13.82;9.35;;;7.00;99.90;;;;;;4998805;28;20149;-68
2022/12/03 11:49:37;;;;;;;18.13;9.30;;;6.90;99.90;;;;;;4998647;28;20039;-68
2022/12/03 11:52:23;;;;;;;15.10;8.57;;;6.80;99.90;;;;;;4997618;28;20052;-71
2022/12/03 11:55:04;;;;;;;13.73;8.85;;;6.80;99.90;;;;;;4998761;28;20499;-70
2022/12/03 11:57:34;;;;;;;14.95;8.88;;;6.90;99.90;;;;;;4999844;28;20062;-68
2022/12/03 12:00:04;;;;;;;14.95;9.43;;;6.90;99.90;;;;;;4998236;28;20034;-69
2022/12/03 12:02:30;;;;;;;15.70;9.10;;;6.90;99.90;;;;;;4996395;28;20108;-68
2022/12/03 12:04:55;;;;;;;15.45;9.10;;;7.00;99.90;;;;;;4997541;28;20437;-68
2022/12/03 12:07:35;;;;;;;16.00;9.27;;;6.90;99.90;;;;;;4988260;28;20100;-67
2022/12/03 12:10:02;;;;;;;14.38;8.82;;;6.90;99.90;;;;;;4985125;28;20034;-68
2022/12/03 12:12:37;;;;;;;15.57;9.38;;;6.90;99.90;;;;;;4985102;28;20026;-68
2022/12/03 12:15:32;;;;;;;16.70;10.18;;;6.90;99.90;;;;;;4991086;28;20042;-68
2022/12/03 12:18:36;;;;;;;15.88;9.63;;;6.90;99.90;;;;;;4985028;28;20130;-68
2022/12/03 12:21:48;;;;;;;15.94;9.98;;;6.90;99.90;;;;;;4840003;28;15739869;-68
2022/12/03 12:24:39;;;;;;;15.77;9.80;;;6.80;99.90;;;;;;4985344;28;20266;-68
2022/12/03 12:27:08;;;;;;;14.30;9.30;;;6.80;99.90;;;;;;4987679;28;20488;-67
2022/12/03 12:29:35;;;;;;;16.52;10.38;;;6.80;99.90;;;;;;4983193;28;20026;-67
2022/12/03 12:32:15;;;;;;;14.00;9.00;;;6.90;99.90;;;;;;4984407;28;20420;-68
2022/12/03 12:34:47;;;;;;;16.92;11.13;;;6.90;99.90;;;;;;4984784;28;20149;-68
2022/12/03 12:37:21;;;;;;;14.45;9.82;;;6.80;99.90;;;;;;4995050;28;20038;-68
2022/12/03 12:39:47;;;;;;;15.40;9.75;;;6.70;99.90;;;;;;4986466;28;20111;-68
2022/12/03 12:42:52;;;;;;;51.53;28.90;;;6.70;99.90;;;;;;4984772;28;20539;-68
2022/12/03 12:45:26;;;;;;;20.20;13.27;;;6.70;99.90;;;;;;4984086;28;20042;-68
2022/12/03 12:47:52;;;;;;;;;;;6.70;99.90;;;;;;4984543;28;20442;-68
2022/12/03 12:50:18;;;;;;;14.07;8.32;;;6.60;99.90;;;;;;4985958;28;20024;-68
2022/12/03 12:52:50;;;;;;;12.93;8.32;;;6.60;99.90;;;;;;4987599;28;20120;-68
2022/12/03 12:55:16;;;;;;;17.17;10.82;;;6.70;99.90;;;;;;4991589;28;20037;-68
2022/12/03 12:57:43;;;;;;;16.98;10.45;;;6.80;99.90;;;;;;5001047;28;20042;-68
2022/12/03 13:00:19;;;;;;;13.80;9.18;;;6.80;99.90;;;;;;4994195;28;20112;-68
2022/12/03 13:02:56;;;;;;;14.73;9.95;;;6.80;99.90;;;;;;5005038;28;20037;-68
2022/12/03 13:05:23;;;;;;;16.83;9.77;;;6.70;99.90;;;;;;5005353;28;20044;-69
2022/12/03 13:07:51;;;;;;;14.13;9.38;;;6.80;99.90;;;;;;5006310;28;20050;-68